Time;durP1;ratioP1;P1;durP2;ratioP2;P2;SDS_P1;SDS_P2;PMS_P1;PMS_P2;Temp;Humidity;BMP_temperature;BMP_pressure;BME280_temperature;BME280_humidity;BME280_pressure;Samples;Min_cycle;Max_cycle;Signal;HPM_P1;HPM_P2
2024/01/04 00:00:01;;;;;;;;;2.25;1.00;;;;;10.22;73.20;99761.09;4976529;28;45471;-79
2024/01/04 00:02:30;;;;;;;;;1.00;1.00;;;;;10.27;73.75;99770.44;4976358;28;46235;-80
2024/01/04 00:04:55;;;;;;;;;5.00;1.67;;;;;10.18;73.75;99759.56;4977030;28;45279;-80
2024/01/04 00:07:21;;;;;;;;;0.67;0.67;;;;;10.15;73.41;99760.59;4981448;28;45231;-81
2024/01/04 00:09:46;;;;;;;;;4.00;1.00;;;;;10.25;72.86;99784.78;4980623;28;55021;-81
2024/01/04 00:12:12;;;;;;;;;0.00;0.00;;;;;10.24;73.04;99793.72;4976755;28;45295;-78
2024/01/04 00:14:37;;;;;;;;;1.33;0.67;;;;;10.16;72.96;99772.13;4975813;28;45583;-81
2024/01/04 00:17:03;;;;;;;;;2.00;2.00;;;;;10.21;73.78;99785.94;4991900;28;45339;-80
2024/01/04 00:19:28;;;;;;;;;0.00;0.00;;;;;10.17;73.86;99782.63;4994606;27;45620;-78
2024/01/04 00:21:53;;;;;;;;;7.67;1.00;;;;;10.11;73.82;99779.53;4984107;28;46005;-78
2024/01/04 00:24:19;;;;;;;;;1.50;1.00;;;;;10.03;73.60;99782.72;4975160;28;66269;-80
2024/01/04 00:26:44;;;;;;;;;3.00;0.00;;;;;10.10;74.05;99801.72;4975841;28;47714;-80
2024/01/04 00:29:09;;;;;;;;;1.00;1.00;;;;;10.06;74.11;99793.13;4975908;28;54502;-80
2024/01/04 00:31:34;;;;;;;;;18.25;15.75;;;;;10.12;74.37;99807.78;4975093;28;60017;-80
2024/01/04 00:34:00;;;;;;;;;4.50;1.50;;;;;10.09;74.25;99808.84;4975447;28;53024;-80
2024/01/04 00:36:25;;;;;;;;;2.25;1.00;;;;;10.09;73.93;99805.34;4976722;28;45370;-79
2024/01/04 00:38:50;;;;;;;;;4.00;1.00;;;;;10.01;74.61;99806.69;4976058;28;45428;-79
2024/01/04 00:41:18;;;;;;;;;0.00;0.00;;;;;9.98;75.15;99817.53;4975299;28;52250;-80
2024/01/04 00:43:44;;;;;;;;;5.00;1.50;;;;;10.09;74.29;99826.59;4975679;28;45436;-79
2024/01/04 00:46:09;;;;;;;;;4.25;1.00;;;;;10.06;74.84;99819.69;4975695;28;45404;-78
2024/01/04 00:48:34;;;;;;;;;0.67;0.67;;;;;9.99;73.82;99824.53;4986836;28;50724;-78
2024/01/04 00:51:01;;;;;;;;;3.00;1.33;;;;;10.05;74.13;99828.63;4975283;28;45992;-81
2024/01/04 00:53:27;;;;;;;;;3.00;1.00;;;;;9.95;73.88;99816.88;4976162;28;45311;-79
2024/01/04 00:55:53;;;;;;;;;1.33;1.00;;;;;10.03;74.09;99839.34;4975520;28;45311;-80
2024/01/04 00:58:18;;;;;;;;;2.00;2.00;;;;;10.00;73.99;99847.50;4974287;28;45167;-80
2024/01/04 01:00:43;;;;;;;;;3.00;1.25;;;;;9.99;74.86;99860.88;4975420;28;46041;-80
2024/01/04 01:03:09;;;;;;;;;3.00;1.67;;;;;9.99;74.91;99853.75;4975186;28;55340;-81
2024/01/04 01:05:34;;;;;;;;;0.00;0.00;;;;;10.01;74.12;99858.97;4975420;28;45231;-79
2024/01/04 01:08:01;;;;;;;;;3.00;1.50;;;;;10.00;73.77;99863.44;4975757;28;45457;-79
2024/01/04 01:10:27;;;;;;;;;1.50;1.50;;;;;9.98;74.76;99854.72;4975988;28;46100;-79
2024/01/04 01:12:53;;;;;;;;;2.00;0.00;;;;;10.03;75.19;99870.38;4990118;28;45603;-78
2024/01/04 01:15:18;;;;;;;;;3.00;0.00;;;;;10.01;74.44;99872.25;4975221;28;45418;-81
2024/01/04 01:17:44;;;;;;;;;1.00;1.00;;;;;10.04;74.72;99880.91;4976019;28;45322;-80
2024/01/04 01:20:09;;;;;;;;;0.67;0.67;;;;;10.03;75.16;99887.16;4975012;27;45507;-79
2024/01/04 01:22:35;;;;;;;;;0.50;0.50;;;;;10.02;74.86;99888.09;4989379;28;45440;-80
2024/01/04 01:25:00;;;;;;;;;0.00;0.00;;;;;10.05;74.82;99887.91;4994857;27;51892;-81
2024/01/04 01:27:25;;;;;;;;;2.67;1.00;;;;;10.05;74.85;99882.59;4994946;28;45353;-79
2024/01/04 01:29:51;;;;;;;;;0.33;0.33;;;;;10.03;74.91;99897.78;4994695;27;45843;-80
2024/01/04 01:32:16;;;;;;;;;2.00;0.67;;;;;10.01;74.70;99889.03;4983582;27;45501;-81
2024/01/04 01:34:42;;;;;;;;;1.33;1.33;;;;;9.98;75.50;99897.22;4975215;28;45810;-80
2024/01/04 01:37:08;;;;;;;;;0.00;0.00;;;;;9.98;74.99;99896.34;4975290;28;45165;-80
2024/01/04 01:39:33;;;;;;;;;2.00;0.00;;;;;9.99;74.98;99888.28;4974893;28;45954;-80
2024/01/04 01:41:58;;;;;;;;;2.00;0.00;;;;;9.94;74.54;99893.06;4975014;28;46007;-78
2024/01/04 01:44:24;;;;;;;;;3.00;1.67;;;;;9.96;74.80;99899.13;4974919;28;45170;-79
2024/01/04 01:46:49;;;;;;;;;1.67;0.00;;;;;9.97;74.90;99905.28;4972377;28;55278;-81
2024/01/04 01:49:14;;;;;;;;;2.33;1.33;;;;;9.72;75.00;99876.78;4973295;28;48347;-81
2024/01/04 01:51:40;;;;;;;;;1.33;0.00;;;;;9.93;74.60;99909.94;4975134;28;45321;-78
2024/01/04 01:54:06;;;;;;;;;0.00;0.00;;;;;9.88;74.58;99912.03;4975180;28;45493;-78
2024/01/04 01:56:31;;;;;;;;;1.67;1.00;;;;;9.86;74.46;99910.44;4975535;28;45490;-82
2024/01/04 01:59:00;;;;;;;;;2.00;0.67;;;;;9.94;75.01;99916.97;4974615;28;46008;-80
2024/01/04 02:01:26;;;;;;;;;2.50;2.00;;;;;9.94;75.06;99932.91;4974860;28;45425;-79
2024/01/04 02:03:52;;;;;;;;;1.00;1.00;;;;;9.85;74.57;99928.16;4974773;28;45381;-79
2024/01/04 02:06:17;;;;;;;;;2.00;1.00;;;;;9.90;75.74;99946.50;4975069;28;45231;-79
2024/01/04 02:08:46;;;;;;;;;1.00;0.00;;;;;9.82;75.86;99916.91;4974239;28;53580;-80
2024/01/04 02:11:11;;;;;;;;;1.00;1.00;;;;;9.68;75.58;99925.72;4975061;28;45452;-80
2024/01/04 02:13:37;;;;;;;;;0.75;0.50;;;;;9.89;75.88;99950.06;4974655;28;45457;-79
2024/01/04 02:16:02;;;;;;;;;1.00;1.00;;;;;9.84;75.49;99946.84;4975195;28;45335;-78
2024/01/04 02:18:28;;;;;;;;;3.67;0.67;;;;;9.86;75.48;99956.44;4974618;28;45944;-79
2024/01/04 02:20:53;;;;;;;;;2.75;1.00;;;;;9.86;75.13;99956.44;4974446;28;45312;-79
2024/01/04 02:23:18;;;;;;;;;0.00;0.00;;;;;9.88;75.52;99966.94;4989445;28;57912;-78
2024/01/04 02:25:44;;;;;;;;;1.00;1.00;;;;;9.88;75.12;99965.16;4973417;28;45430;-79
2024/01/04 02:28:09;;;;;;;;;0.00;0.00;;;;;9.70;74.92;99943.25;4974238;28;45442;-79
2024/01/04 02:30:35;;;;;;;;;2.50;0.75;;;;;9.80;75.63;99972.75;4974815;28;45422;-78
2024/01/04 02:33:00;;;;;;;;;1.00;1.00;;;;;9.78;75.09;99961.38;4981400;28;46095;-81
2024/01/04 02:35:26;;;;;;;;;1.00;1.00;;;;;9.73;74.40;99958.16;4973945;28;45489;-79
2024/01/04 02:37:52;;;;;;;;;4.75;1.00;;;;;9.74;74.77;99973.13;4974200;28;45321;-79
2024/01/04 02:40:18;;;;;;;;;0.25;0.25;;;;;9.65;75.19;99965.75;4974378;28;45204;-80
2024/01/04 02:42:43;;;;;;;;;0.00;0.00;;;;;9.76;75.39;99979.19;4974346;28;45309;-79
2024/01/04 02:45:08;;;;;;;;;3.00;1.00;;;;;9.79;75.17;99980.81;4974535;28;45264;-79
2024/01/04 02:47:34;;;;;;;;;0.75;0.00;;;;;9.79;74.06;99976.38;4974130;28;54041;-79
2024/01/04 02:50:00;;;;;;;;;0.50;0.00;;;;;9.81;73.79;99987.75;4974224;28;45243;-79
2024/01/04 02:52:25;;;;;;;;;0.00;0.00;;;;;9.88;73.60;99999.66;4985836;28;45380;-82
2024/01/04 02:54:50;;;;;;;;;5.00;0.67;;;;;9.92;73.53;99995.91;4992594;27;45859;-80
2024/01/04 02:57:15;;;;;;;;;3.75;2.50;;;;;9.93;72.70;99986.97;4993312;28;62529;-78
2024/01/04 02:59:41;;;;;;;;;3.75;1.75;;;;;10.02;73.18;99998.81;4993662;28;58358;-78
2024/01/04 03:02:06;;;;;;;;;2.00;0.00;;;;;10.08;72.78;100002.91;4995696;28;45408;-81
2024/01/04 03:04:31;;;;;;;;;0.50;0.00;;;;;10.09;72.10;100010.78;4995678;28;45386;-79
2024/01/04 03:06:57;;;;;;;;;2.33;1.00;;;;;10.19;71.95;100019.00;4994843;28;46201;-79
2024/01/04 03:09:22;;;;;;;;;2.00;0.33;;;;;10.19;72.71;100008.38;4983577;28;47135;-78
2024/01/04 03:11:47;;;;;;;;;1.00;1.00;;;;;10.28;73.64;100026.41;4973287;28;50372;-80
2024/01/04 03:14:12;;;;;;;;;0.00;0.00;;;;;10.21;73.74;100019.75;4972948;28;59805;-79
2024/01/04 03:16:38;;;;;;;;;4.25;1.00;;;;;10.27;74.22;100024.72;4973874;28;46201;-79
2024/01/04 03:19:03;;;;;;;;;3.00;0.67;;;;;10.22;74.32;100037.44;4974300;28;45354;-79
2024/01/04 03:21:28;;;;;;;;;1.67;1.00;;;;;10.15;74.79;100020.13;4974006;28;45429;-79
2024/01/04 03:23:54;;;;;;;;;1.00;1.00;;;;;10.06;74.90;100024.25;4973905;28;45314;-80
2024/01/04 03:26:19;;;;;;;;;0.33;0.00;;;;;10.14;75.71;100027.25;4973287;28;55517;-78
2024/01/04 03:28:44;;;;;;;;;0.00;0.00;;;;;10.23;75.78;100041.81;4973811;28;45301;-81
2024/01/04 03:31:10;;;;;;;;;4.00;1.00;;;;;10.29;75.07;100039.63;4973183;28;59127;-80
2024/01/04 03:33:35;;;;;;;;;2.00;0.67;;;;;10.33;74.04;100029.66;4975475;28;45197;-79
2024/01/04 03:36:01;;;;;;;;;2.00;2.00;;;;;10.39;72.88;100033.72;4971701;28;63682;-79
2024/01/04 03:38:26;;;;;;;;;2.00;0.33;;;;;10.44;73.08;100032.47;4973557;28;45365;-80
2024/01/04 03:40:51;;;;;;;;;1.33;0.00;;;;;10.46;73.00;100038.53;4978121;28;45981;-79
2024/01/04 03:43:16;;;;;;;;;1.00;0.00;;;;;10.52;72.13;100046.13;4992708;28;52173;-78
2024/01/04 03:45:42;;;;;;;;;3.00;0.00;;;;;10.54;72.34;100049.53;4992635;27;45216;-79
2024/01/04 03:48:07;;;;;;;;;0.00;0.00;;;;;10.47;72.70;100042.91;4993074;28;45222;-79
2024/01/04 03:50:32;;;;;;;;;2.67;1.00;;;;;10.44;73.04;100032.47;4991823;28;45487;-79
2024/01/04 03:52:58;;;;;;;;;4.67;0.67;;;;;10.51;72.18;100046.22;4992669;28;45504;-79
2024/01/04 03:55:23;;;;;;;;;2.67;1.67;;;;;10.50;71.68;100044.50;4991269;28;45960;-79
2024/01/04 03:57:50;;;;;;;;;1.00;1.00;;;;;10.48;71.51;100049.94;4973113;28;45327;-79
2024/01/04 04:00:16;;;;;;;;;1.67;0.33;;;;;10.51;71.35;100047.06;4972046;28;45425;-79
2024/01/04 04:02:41;;;;;;;;;0.00;0.00;;;;;10.39;71.39;100029.25;4973148;28;45455;-79
2024/01/04 04:05:07;;;;;;;;;2.33;2.00;;;;;10.37;71.86;100032.97;4972460;28;64062;-79
2024/01/04 04:07:32;;;;;;;;;0.67;0.33;;;;;10.45;72.44;100057.25;4972990;28;45416;-80
2024/01/04 04:09:58;;;;;;;;;3.33;0.33;;;;;10.40;71.91;100036.25;4973761;28;45278;-78
2024/01/04 04:12:25;;;;;;;;;5.00;1.33;;;;;10.47;71.99;100050.88;4975877;28;45544;-78
2024/01/04 04:14:51;;;;;;;;;1.00;0.00;;;;;10.42;72.32;100045.03;4975934;28;46176;-78
2024/01/04 04:17:20;;;;;;;;;0.33;0.00;;;;;10.52;71.86;100062.06;4976026;28;45266;-79
2024/01/04 04:19:46;;;;;;;;;2.67;1.00;;;;;10.50;71.21;100066.63;4976207;28;45234;-79
2024/01/04 04:22:11;;;;;;;;;3.00;1.33;;;;;10.40;72.32;100067.31;4977022;28;45489;-79
2024/01/04 04:24:37;;;;;;;;;2.00;1.00;;;;;10.29;71.71;100066.22;4976144;28;46289;-80
2024/01/04 04:27:02;;;;;;;;;1.00;1.00;;;;;10.28;72.76;100072.44;4975930;27;45334;-77
2024/01/04 04:29:27;;;;;;;;;3.33;0.00;;;;;10.21;72.61;100072.91;4976115;28;45410;-80
2024/01/04 04:31:54;;;;;;;;;2.67;1.00;;;;;10.13;72.15;100067.22;4976119;28;45345;-79
2024/01/04 04:34:19;;;;;;;;;1.00;0.67;;;;;10.07;72.59;100063.16;4975853;28;46992;-79
2024/01/04 04:36:45;;;;;;;;;1.00;1.00;;;;;10.04;72.47;100082.81;4975697;28;45501;-79
2024/01/04 04:39:11;;;;;;;;;2.67;1.00;;;;;9.99;72.48;100079.56;4976284;28;45406;-79
2024/01/04 04:41:39;;;;;;;;;1.00;0.00;;;;;10.00;73.24;100072.44;4989652;28;45252;-79
2024/01/04 04:44:04;;;;;;;;;3.25;1.00;;;;;9.95;73.06;100069.22;4995131;27;45193;-79
2024/01/04 04:46:29;;;;;;;;;4.33;1.00;;;;;9.97;72.77;100076.16;5010409;28;45251;-78
2024/01/04 04:48:56;;;;;;;;;1.00;0.00;;;;;9.92;72.72;100083.56;4982686;28;60603;-80
2024/01/04 04:51:25;;;;;;;;;0.00;0.00;;;;;9.89;72.84;100073.09;4975993;28;45523;-78
2024/01/04 04:53:51;;;;;;;;;0.00;0.00;;;;;9.79;72.96;100071.97;4975571;28;46042;-80
2024/01/04 04:56:16;;;;;;;;;0.67;0.67;;;;;9.84;73.35;100087.63;4990692;27;45336;-80
2024/01/04 04:58:41;;;;;;;;;3.00;1.00;;;;;9.85;73.52;100082.22;4976248;28;45404;-79
2024/01/04 05:01:08;;;;;;;;;2.33;0.00;;;;;9.84;73.51;100083.16;4979955;28;45276;-78
2024/01/04 05:03:34;;;;;;;;;2.33;1.00;;;;;9.79;73.29;100084.41;4975499;28;46158;-79
2024/01/04 05:05:59;;;;;;;;;2.00;1.00;;;;;9.75;73.67;100091.66;4975239;28;45370;-78
2024/01/04 05:08:25;;;;;;;;;2.33;1.00;;;;;9.74;74.00;100084.66;4975258;28;45392;-78
2024/01/04 05:10:50;;;;;;;;;1.67;1.00;;;;;9.69;73.84;100087.59;4975880;28;45626;-78
2024/01/04 05:13:15;;;;;;;;;1.00;1.00;;;;;9.74;74.09;100100.59;4975310;28;45424;-79
2024/01/04 05:15:42;;;;;;;;;7.00;1.00;;;;;9.73;73.88;100102.38;4973470;28;63798;-80
2024/01/04 05:18:09;;;;;;;;;1.33;1.33;;;;;9.74;73.37;100105.91;4975534;28;45434;-79
2024/01/04 05:20:34;;;;;;;;;1.00;1.00;;;;;9.63;74.31;100087.94;4975695;28;45529;-78
2024/01/04 05:23:00;;;;;;;;;3.00;2.00;;;;;9.66;74.33;100102.88;4973720;27;46146;-78
2024/01/04 05:25:25;;;;;;;;;2.50;1.25;;;;;9.73;73.74;100107.69;4974937;28;47198;-79
2024/01/04 05:27:50;;;;;;;;;1.00;1.00;;;;;9.72;74.27;100107.81;4975297;28;45476;-78
2024/01/04 05:30:16;;;;;;;;;5.00;2.00;;;;;9.71;74.52;100109.59;4975714;28;45444;-79
2024/01/04 05:32:41;;;;;;;;;2.75;0.50;;;;;9.73;74.88;100114.81;4989787;28;45823;-79
2024/01/04 05:35:07;;;;;;;;;3.00;1.00;;;;;9.71;73.75;100111.41;4975425;28;58254;-80
2024/01/04 05:37:32;;;;;;;;;1.00;1.00;;;;;9.68;74.39;100109.78;4975216;28;45405;-79
2024/01/04 05:39:57;;;;;;;;;0.00;0.00;;;;;9.71;74.51;100116.72;4975142;28;45656;-79
2024/01/04 05:42:22;;;;;;;;;3.33;1.33;;;;;9.69;74.77;100118.63;4974544;28;66745;-80
2024/01/04 05:44:48;;;;;;;;;7.00;1.00;;;;;9.61;74.18;100110.25;4974670;28;45366;-79
2024/01/04 05:47:13;;;;;;;;;3.00;2.00;;;;;9.61;75.04;100115.53;4975598;28;45391;-79
2024/01/04 05:49:38;;;;;;;;;4.00;2.00;;;;;9.60;74.57;100108.53;4975322;28;45330;-78
2024/01/04 05:52:04;;;;;;;;;0.00;0.00;;;;;9.57;75.27;100114.03;4985488;28;48211;-78
2024/01/04 05:54:29;;;;;;;;;2.25;1.00;;;;;9.52;75.41;100116.13;4977389;28;45270;-79
2024/01/04 05:56:55;;;;;;;;;1.25;1.00;;;;;9.51;75.58;100119.72;4977672;28;48461;-79
2024/01/04 05:59:24;;;;;;;;;3.00;0.75;;;;;9.49;75.37;100122.44;4976190;28;45471;-78
2024/01/04 06:01:53;;;;;;;;;1.33;0.00;;;;;9.41;75.35;100114.94;4975784;28;46337;-79
2024/01/04 06:04:18;;;;;;;;;2.00;1.00;;;;;9.41;75.45;100114.94;4974794;28;45394;-78
2024/01/04 06:06:43;;;;;;;;;4.00;2.00;;;;;9.42;75.70;100121.09;4974652;28;51734;-80
2024/01/04 06:09:09;;;;;;;;;2.00;1.00;;;;;9.38;76.46;100125.75;4974851;28;46149;-80
2024/01/04 06:11:38;;;;;;;;;3.75;0.00;;;;;9.34;75.45;100129.50;4974680;28;45444;-78
2024/01/04 06:14:03;;;;;;;;;2.50;2.50;;;;;9.40;76.09;100139.78;4973241;28;45605;-78
2024/01/04 06:16:28;;;;;;;;;4.00;2.00;;;;;9.38;75.93;100141.66;4974468;28;45423;-80
2024/01/04 06:18:54;;;;;;;;;2.00;0.50;;;;;9.36;76.13;100132.91;4974561;28;45539;-80
2024/01/04 06:21:19;;;;;;;;;6.00;0.75;;;;;9.40;76.33;100126.50;4974686;28;46028;-79
2024/01/04 06:23:45;;;;;;;;;6.00;1.33;;;;;9.49;77.07;100137.50;4974925;28;45264;-79
2024/01/04 06:26:19;;;;;;;;;3.00;1.00;;;;;9.57;76.12;100145.88;4974488;28;45269;-80
2024/01/04 06:28:45;;;;;;;;;1.75;1.00;;;;;9.57;76.78;100149.41;4973440;28;45327;-80
2024/01/04 06:31:10;;;;;;;;;1.00;1.00;;;;;9.62;75.56;100151.75;4974403;28;47085;-81
2024/01/04 06:33:36;;;;;;;;;3.00;1.00;;;;;9.61;75.97;100145.59;4973750;28;45422;-80
2024/01/04 06:36:02;;;;;;;;;2.00;2.00;;;;;9.56;76.09;100133.56;4974487;28;45239;-81
2024/01/04 06:38:28;;;;;;;;;4.00;0.50;;;;;9.70;76.14;100158.34;4986048;28;45544;-78
2024/01/04 06:40:58;;;;;;;;;1.00;1.00;;;;;9.75;75.64;100155.41;4992252;27;45433;-79
2024/01/04 06:43:24;;;;;;;;;2.75;1.00;;;;;9.77;75.59;100161.50;4992449;28;45554;-80
2024/01/04 06:45:49;;;;;;;;;2.50;1.00;;;;;9.78;75.92;100160.56;4993391;28;45337;-80
2024/01/04 06:48:15;;;;;;;;;1.00;1.00;;;;;9.79;75.71;100164.06;4994289;28;45301;-79
2024/01/04 06:50:42;;;;;;;;;0.25;0.25;;;;;9.89;75.41;100167.84;4992249;27;46296;-79
2024/01/04 06:53:08;;;;;;;;;2.00;1.00;;;;;9.89;75.56;100170.50;4993584;28;45601;-79
2024/01/04 06:55:33;;;;;;;;;0.00;0.00;;;;;9.93;74.64;100180.88;4993629;27;45235;-79
2024/01/04 06:57:58;;;;;;;;;1.00;1.00;;;;;9.96;75.40;100186.00;4993949;27;45280;-79
2024/01/04 07:00:23;;;;;;;;;2.25;1.75;;;;;9.94;75.29;100181.75;4993249;27;45273;-79
2024/01/04 07:02:49;;;;;;;;;2.00;1.00;;;;;9.92;74.77;100181.84;4994379;27;52665;-80
2024/01/04 07:05:14;;;;;;;;;0.25;0.25;;;;;9.99;74.83;100191.13;4992732;27;63311;-80
2024/01/04 07:07:39;;;;;;;;;2.25;1.00;;;;;9.86;75.13;100168.91;4993813;28;45368;-80
2024/01/04 07:10:05;;;;;;;;;4.00;1.00;;;;;9.81;74.33;100165.69;4993160;28;46070;-78
2024/01/04 07:12:31;;;;;;;;;1.00;1.00;;;;;9.73;75.68;100166.13;4993391;27;45724;-79
2024/01/04 07:14:57;;;;;;;;;5.33;2.00;;;;;9.84;74.68;100192.03;4993358;27;45289;-79
2024/01/04 07:17:23;;;;;;;;;2.50;1.00;;;;;9.73;75.12;100191.81;4990726;28;48766;-79
2024/01/04 07:19:48;;;;;;;;;3.67;1.00;;;;;9.74;75.75;100202.34;4993536;28;46414;-79
2024/01/04 07:22:15;;;;;;;;;4.50;0.75;;;;;9.74;76.11;100201.50;4993121;28;45359;-79
2024/01/04 07:24:41;;;;;;;;;1.75;1.25;;;;;9.79;75.64;100209.22;4993300;28;45440;-81
2024/01/04 07:27:08;;;;;;;;;3.00;1.33;;;;;9.80;76.05;100211.78;4979982;28;45441;-79
2024/01/04 07:29:34;;;;;;;;;6.33;2.00;;;;;9.76;75.77;100223.50;4988698;28;46474;-79
2024/01/04 07:31:59;;;;;;;;;1.00;1.00;;;;;9.73;76.46;100218.38;4973547;28;45342;-77
2024/01/04 07:34:25;;;;;;;;;2.00;1.00;;;;;9.62;75.68;100207.53;4982341;28;45341;-79
2024/01/04 07:36:51;;;;;;;;;2.00;2.00;;;;;9.59;76.97;100205.91;4993472;28;45665;-78
2024/01/04 07:39:16;;;;;;;;;2.00;0.33;;;;;9.53;77.77;100213.38;4992588;28;46019;-77
2024/01/04 07:41:43;;;;;;;;;2.00;1.00;;;;;9.35;76.65;100189.59;4992993;28;45444;-78
2024/01/04 07:44:09;;;;;;;;;1.00;1.00;;;;;9.56;77.04;100218.50;4979395;28;45473;-80
2024/01/04 07:46:35;;;;;;;;;3.00;1.50;;;;;9.57;77.49;100225.53;4989339;28;45497;-79
2024/01/04 07:49:01;;;;;;;;;3.50;1.50;;;;;9.54;78.10;100220.41;4993614;28;46277;-79
2024/01/04 07:51:26;;;;;;;;;4.75;2.25;;;;;9.53;77.13;100219.56;4995757;27;45381;-80
2024/01/04 07:53:51;;;;;;;;;1.50;1.50;;;;;9.50;78.00;100218.84;4996124;27;45524;-79
2024/01/04 07:56:17;;;;;;;;;1.50;1.00;;;;;9.40;77.88;100208.78;4995760;28;48006;-81
2024/01/04 07:58:42;;;;;;;;;2.50;1.00;;;;;9.43;77.81;100207.75;4995760;28;45650;-79
2024/01/04 08:01:08;;;;;;;;;3.75;2.00;;;;;9.39;77.90;100223.00;4995826;27;45319;-80
2024/01/04 08:03:33;;;;;;;;;3.00;1.75;;;;;9.34;77.46;100214.41;4996131;27;45311;-79
2024/01/04 08:05:58;;;;;;;;;7.00;2.00;;;;;9.35;78.30;100200.22;4995930;28;45340;-80
2024/01/04 08:08:26;;;;;;;;;1.00;0.00;;;;;9.37;79.18;100211.59;4996003;28;45295;-79
2024/01/04 08:10:52;;;;;;;;;1.50;1.50;;;;;9.34;79.03;100213.56;4994830;28;45491;-80
2024/01/04 08:13:17;;;;;;;;;6.00;1.00;;;;;9.35;78.24;100217.94;4995470;28;45400;-79
2024/01/04 08:15:42;;;;;;;;;8.25;2.00;;;;;9.36;79.11;100216.97;4995515;27;45570;-78
2024/01/04 08:18:08;;;;;;;;;2.75;1.25;;;;;9.27;78.88;100202.47;4995368;28;46016;-79
2024/01/04 08:20:33;;;;;;;;;3.00;1.50;;;;;9.39;78.75;100216.84;4995518;28;45530;-79
2024/01/04 08:22:59;;;;;;;;;7.25;2.00;;;;;9.40;78.18;100207.94;4995278;27;45307;-79
2024/01/04 08:25:24;;;;;;;;;6.00;2.00;;;;;9.49;78.45;100209.19;4996185;28;45607;-80
2024/01/04 08:27:50;;;;;;;;;3.00;3.00;;;;;9.48;77.98;100202.16;4995393;27;45267;-78
2024/01/04 08:30:15;;;;;;;;;2.25;2.00;;;;;9.43;78.10;100192.66;4995484;27;45338;-79
2024/01/04 08:32:41;;;;;;;;;3.00;2.00;;;;;9.39;77.78;100185.84;4994084;27;45348;-80
2024/01/04 08:35:07;;;;;;;;;3.25;2.00;;;;;9.50;78.23;100202.91;4995795;28;45385;-80
2024/01/04 08:37:32;;;;;;;;;4.75;2.50;;;;;9.43;78.41;100191.81;4995293;27;45383;-80
2024/01/04 08:39:57;;;;;;;;;1.50;1.50;;;;;9.48;78.83;100203.00;4995580;28;45270;-80
2024/01/04 08:42:23;;;;;;;;;2.00;2.00;;;;;9.53;77.73;100202.78;4996021;27;46772;-81
2024/01/04 08:44:48;;;;;;;;;5.00;1.25;;;;;9.56;77.84;100202.59;4999895;27;45227;-81
2024/01/04 08:47:13;;;;;;;;;14.75;7.00;;;;;9.44;78.34;100182.91;4999988;28;46094;-79
2024/01/04 08:49:39;;;;;;;;;5.25;2.00;;;;;9.59;77.85;100203.25;4997945;28;45225;-79
2024/01/04 08:52:05;;;;;;;;;6.50;2.75;;;;;9.57;78.50;100197.19;4998259;27;45283;-79
2024/01/04 08:54:30;;;;;;;;;5.50;2.25;;;;;9.56;78.05;100199.94;4995738;28;45386;-79
2024/01/04 08:56:56;;;;;;;;;6.25;4.00;;;;;9.62;77.45;100215.47;4995146;28;45370;-80
2024/01/04 08:59:21;;;;;;;;;8.00;2.50;;;;;9.60;78.61;100204.97;4994058;28;69071;-79
2024/01/04 09:01:46;;;;;;;;;4.25;3.25;;;;;9.63;78.91;100209.22;4995303;28;45442;-79
2024/01/04 09:04:12;;;;;;;;;5.00;2.75;;;;;9.69;77.89;100204.44;5010588;27;45504;-82
2024/01/04 09:06:38;;;;;;;;;0.75;0.50;;;;;9.73;77.78;100207.75;4993510;28;46785;-81
2024/01/04 09:09:07;;;;;;;;;5.25;2.25;;;;;9.71;77.98;100212.31;4994857;27;45281;-80
2024/01/04 09:11:38;;;;;;;;;2.00;2.00;;;;;9.69;77.45;100204.44;4995270;27;45381;-80
2024/01/04 09:14:06;;;;;;;;;3.50;3.50;;;;;9.69;78.18;100190.31;4995349;28;45397;-79
2024/01/04 09:16:31;;;;;;;;;5.67;1.00;;;;;9.86;78.04;100206.09;4995154;28;45312;-80
2024/01/04 09:18:56;;;;;;;;;6.00;2.00;;;;;9.89;77.18;100205.91;4994989;27;45401;-80
2024/01/04 09:21:22;;;;;;;;;1.67;1.00;;;;;9.91;76.73;100201.38;4994620;28;45230;-79
2024/01/04 09:23:47;;;;;;;;;6.00;2.75;;;;;10.03;77.23;100208.63;4995303;27;45447;-80
2024/01/04 09:26:12;;;;;;;;;2.67;2.00;;;;;9.96;76.66;100191.31;4994766;28;45970;-79
2024/01/04 09:28:38;;;;;;;;;1.00;1.00;;;;;9.97;77.50;100203.66;4994901;27;46608;-81
2024/01/04 09:31:03;;;;;;;;;5.00;3.00;;;;;9.95;77.77;100204.69;4995184;28;45226;-80
2024/01/04 09:33:28;;;;;;;;;5.00;2.00;;;;;9.91;77.29;100198.72;4995316;28;45380;-81
2024/01/04 09:35:53;;;;;;;;;6.67;3.00;;;;;9.88;77.78;100193.56;4994353;27;59927;-81
2024/01/04 09:38:19;;;;;;;;;7.00;3.00;;;;;9.93;77.90;100191.50;4994597;28;54286;-81
2024/01/04 09:40:46;;;;;;;;;4.50;2.00;;;;;10.04;77.14;100204.16;4994851;28;45459;-80
2024/01/04 09:43:15;;;;;;;;;3.00;1.67;;;;;10.04;77.56;100210.31;4994919;28;45332;-80
2024/01/04 09:45:43;;;;;;;;;6.00;2.75;;;;;10.03;77.70;100203.31;4994171;27;46103;-81
2024/01/04 09:48:10;;;;;;;;;3.75;3.00;;;;;10.11;77.96;100207.28;4993158;28;45318;-78
2024/01/04 09:50:37;;;;;;;;;8.75;4.00;;;;;10.13;77.55;100218.66;4994607;28;45433;-79
2024/01/04 09:53:05;;;;;;;;;7.50;3.75;;;;;10.21;77.36;100214.66;4994560;28;45484;-80
2024/01/04 09:55:35;;;;;;;;;3.00;3.00;;;;;10.23;76.76;100199.47;4994275;27;46344;-78
2024/01/04 09:58:01;;;;;;;;;4.00;3.00;;;;;10.33;77.33;100199.75;4994766;28;45287;-80
2024/01/04 10:00:29;;;;;;;;;1.00;1.00;;;;;10.45;77.20;100203.47;4994820;27;45405;-80
2024/01/04 10:02:58;;;;;;;;;2.33;2.33;;;;;10.48;76.56;100193.50;4994964;27;45534;-80
2024/01/04 10:05:24;;;;;;;;;6.25;2.50;;;;;10.57;76.70;100198.25;4994304;28;46194;-80
2024/01/04 10:08:00;;;;;;;;;2.75;2.25;;;;;10.73;76.45;100190.16;4993344;28;45310;-81
2024/01/04 10:10:33;;;;;;;;;3.33;2.00;;;;;10.90;76.10;100207.69;4994253;28;45239;-79
2024/01/04 10:13:00;;;;;;;;;6.33;3.33;;;;;11.09;75.74;100205.59;4994788;27;45236;-81
2024/01/04 10:15:26;;;;;;;;;7.00;4.67;;;;;11.14;74.89;100190.16;4993533;28;45312;-79
2024/01/04 10:17:52;;;;;;;;;6.33;3.00;;;;;11.22;74.70;100193.19;4993893;28;45185;-81
2024/01/04 10:20:18;;;;;;;;;12.00;4.00;;;;;11.32;74.45;100200.56;4992965;28;45460;-81
2024/01/04 10:22:43;;;;;;;;;3.67;3.00;;;;;11.38;74.07;100203.69;4993964;27;45623;-79
2024/01/04 10:25:10;;;;;;;;;7.67;3.33;;;;;11.21;74.47;100183.50;4993854;27;45980;-81
2024/01/04 10:27:35;;;;;;;;;7.00;2.33;;;;;11.30;74.63;100195.34;4994132;28;45457;-81
2024/01/04 10:30:05;;;;;;;;;2.00;0.00;;;;;11.34;74.64;100199.53;4994439;27;45384;-80
2024/01/04 10:32:30;;;;;;;;;4.50;3.50;;;;;11.36;74.41;100197.63;4994634;27;45348;-80
2024/01/04 10:35:04;;;;;;;;;5.00;1.67;;;;;11.34;74.12;100198.69;4993763;27;45295;-81
2024/01/04 10:37:29;;;;;;;;;7.33;4.00;;;;;11.28;74.30;100186.63;4994148;27;45279;-82
2024/01/04 10:39:56;;;;;;;;;11.33;3.67;;;;;11.25;75.48;100177.97;4993894;28;45313;-80
2024/01/04 10:42:22;;;;;;;;;9.00;4.00;;;;;11.22;74.80;100182.56;4992997;28;45574;-81
2024/01/04 10:44:51;;;;;;;;;3.67;2.00;;;;;11.18;75.14;100177.50;4993768;28;45446;-81
2024/01/04 10:47:17;;;;;;;;;4.67;3.33;;;;;11.18;74.91;100162.41;4994407;27;45448;-80
2024/01/04 10:49:47;;;;;;;;;6.33;3.00;;;;;11.26;75.22;100182.34;4993995;28;45384;-81
2024/01/04 10:52:15;;;;;;;;;6.33;4.00;;;;;11.28;75.66;100175.09;4994364;27;45359;-82
2024/01/04 10:54:41;;;;;;;;;4.67;3.67;;;;;11.28;75.38;100172.44;4995050;28;45553;-82
2024/01/04 10:57:09;;;;;;;;;5.33;4.33;;;;;11.34;75.70;100172.06;4993639;27;45280;-80
2024/01/04 10:59:35;;;;;;;;;4.67;3.00;;;;;11.37;75.53;100158.53;4993876;28;45226;-79
2024/01/04 11:02:02;;;;;;;;;5.00;3.33;;;;;11.27;75.99;100160.09;4993842;28;45222;-81
2024/01/04 11:04:29;;;;;;;;;6.33;3.00;;;;;11.34;75.93;100151.63;4993240;28;45446;-80
2024/01/04 11:06:55;;;;;;;;;8.00;5.00;;;;;11.31;75.90;100150.94;4993518;27;45360;-79
2024/01/04 11:09:21;;;;;;;;;5.67;4.00;;;;;11.28;75.90;100157.31;4993333;27;45306;-81
2024/01/04 11:11:54;;;;;;;;;3.67;2.00;;;;;11.05;76.47;100124.22;4993504;28;45492;-78
2024/01/04 11:14:20;;;;;;;;;6.67;4.00;;;;;11.13;76.79;100137.91;4993018;28;45421;-80
2024/01/04 11:17:17;;;;;;;;;8.67;4.67;;;;;11.21;77.07;100145.41;4991804;28;45523;-79
2024/01/04 11:20:01;;;;;;;;;4.67;3.33;;;;;11.22;76.37;100141.78;4994737;28;45279;-79
2024/01/04 11:22:38;;;;;;;;;7.67;5.00;;;;;11.20;77.61;100138.38;4996503;28;45355;-83
2024/01/04 11:25:28;;;;;;;;;3.67;3.00;;;;;11.15;77.37;100141.31;4996498;28;45283;-81